Time;durP1;ratioP1;P1;durP2;ratioP2;P2;SDS_P1;SDS_P2;PMS_P1;PMS_P2;Temp;Humidity;BMP_temperature;BMP_pressure;BME280_temperature;BME280_humidity;BME280_pressure;Samples;Min_cycle;Max_cycle;Signal;HPM_P1;HPM_P2
2024/02/16 00:00:02;;;;;;;1999.90;999.90;;;14.80;99.90;;;;;;5093395;28;20027;-84
2024/02/16 00:02:28;;;;;;;1999.90;999.90;;;14.90;99.90;;;;;;5092955;28;20024;-86
2024/02/16 00:04:53;;;;;;;1999.90;999.90;;;14.80;99.90;;;;;;5093670;28;20024;-85
2024/02/16 00:07:19;;;;;;;1999.90;999.90;;;14.90;99.90;;;;;;5092936;28;20118;-83
2024/02/16 00:09:45;;;;;;;1999.90;999.90;;;14.90;99.90;;;;;;5092271;28;20036;-85
2024/02/16 00:12:11;;;;;;;1999.90;999.90;;;14.90;99.90;;;;;;5092899;28;20024;-84
2024/02/16 00:14:36;;;;;;;1999.90;999.90;;;14.90;99.90;;;;;;5092602;28;20024;-86
2024/02/16 00:17:03;;;;;;;1999.90;999.90;;;14.90;99.90;;;;;;5093997;28;20036;-86
2024/02/16 00:19:29;;;;;;;1999.90;999.90;;;14.90;99.90;;;;;;5092634;28;20562;-85
2024/02/16 00:21:55;;;;;;;1999.90;999.90;;;14.90;99.90;;;;;;5099410;28;20023;-85
2024/02/16 00:24:21;;;;;;;1999.90;999.90;;;14.90;99.90;;;;;;5108954;28;20020;-86
2024/02/16 00:26:47;;;;;;;1999.90;999.90;;;14.80;99.90;;;;;;5094479;28;20031;-85
2024/02/16 00:29:12;;;;;;;1999.90;999.90;;;14.80;99.90;;;;;;5114121;28;20023;-87
2024/02/16 00:31:38;;;;;;;1999.90;999.90;;;14.90;99.90;;;;;;5112725;28;20490;-84
2024/02/16 00:34:04;;;;;;;1999.90;999.90;;;14.90;99.90;;;;;;5095916;28;20020;-86
2024/02/16 00:36:30;;;;;;;1999.90;999.90;;;14.80;99.90;;;;;;5091930;28;20397;-85
2024/02/16 00:38:56;;;;;;;1999.90;999.90;;;14.80;99.90;;;;;;5092237;28;20028;-86
2024/02/16 00:41:23;;;;;;;1999.90;999.90;;;14.80;99.90;;;;;;5093923;28;20054;-85
2024/02/16 00:43:52;;;;;;;1999.90;999.90;;;14.80;99.90;;;;;;5092561;28;20028;-85
2024/02/16 00:46:17;;;;;;;1999.90;999.90;;;14.80;99.90;;;;;;5093638;28;20028;-86
2024/02/16 00:48:43;;;;;;;1999.90;999.90;;;14.90;99.90;;;;;;5092137;28;20085;-86
2024/02/16 00:51:09;;;;;;;1999.90;999.90;;;14.90;99.90;;;;;;5093493;28;20024;-84
2024/02/16 00:53:34;;;;;;;1999.90;999.90;;;14.90;99.90;;;;;;5091998;28;20034;-85
2024/02/16 00:56:00;;;;;;;1999.90;999.90;;;14.90;99.90;;;;;;5093456;28;20053;-86
2024/02/16 00:58:26;;;;;;;1999.90;999.90;;;15.00;99.90;;;;;;5091975;28;20021;-84
2024/02/16 01:00:51;;;;;;;1999.90;999.90;;;15.00;99.90;;;;;;5093406;28;20095;-85
2024/02/16 01:03:18;;;;;;;1999.90;999.90;;;15.00;99.90;;;;;;5092028;28;20020;-87
2024/02/16 01:05:44;;;;;;;1999.90;999.90;;;15.00;99.90;;;;;;5093103;28;20464;-86
2024/02/16 01:08:09;;;;;;;1999.90;999.90;;;15.10;99.90;;;;;;5092285;28;20032;-85
2024/02/16 01:10:35;;;;;;;1999.90;999.90;;;15.10;99.90;;;;;;5091752;28;20398;-86
2024/02/16 01:13:01;;;;;;;1999.90;999.90;;;15.20;99.90;;;;;;5093004;28;20028;-87
2024/02/16 01:15:26;;;;;;;1999.90;999.90;;;15.20;99.90;;;;;;5091840;28;20028;-85
2024/02/16 01:17:52;;;;;;;1999.90;999.90;;;15.30;99.90;;;;;;5092298;28;20082;-87
2024/02/16 01:20:19;;;;;;;1999.90;999.90;;;15.30;99.90;;;;;;5105417;28;20020;-86
2024/02/16 01:22:45;;;;;;;1999.90;999.90;;;15.40;99.90;;;;;;5119209;28;20028;-84
2024/02/16 01:25:11;;;;;;;1999.90;999.90;;;15.50;99.90;;;;;;5130638;28;20035;-85
2024/02/16 01:27:37;;;;;;;1999.90;999.90;;;15.50;99.90;;;;;;5131424;28;20028;-85
2024/02/16 01:30:03;;;;;;;1999.90;999.90;;;15.60;99.90;;;;;;5116117;28;20034;-84
2024/02/16 01:32:28;;;;;;;1999.90;999.90;;;15.70;99.90;;;;;;5091538;28;20103;-87
2024/02/16 01:34:54;;;;;;;1999.90;999.90;;;15.70;99.90;;;;;;5091558;28;20108;-85
2024/02/16 01:37:20;;;;;;;1999.90;999.90;;;15.70;99.90;;;;;;5091500;28;20031;-85
2024/02/16 01:39:45;;;;;;;1999.90;999.90;;;15.80;99.90;;;;;;5092631;28;20028;-84
2024/02/16 01:42:11;;;;;;;1999.90;999.90;;;15.90;99.90;;;;;;5091599;28;20494;-85
2024/02/16 01:44:37;;;;;;;1999.90;999.90;;;16.00;99.90;;;;;;5091766;28;20073;-83
2024/02/16 01:47:04;;;;;;;1999.90;999.90;;;16.10;99.90;;;;;;5091293;28;20509;-85
2024/02/16 01:49:30;;;;;;;1999.90;999.90;;;16.10;99.90;;;;;;5091525;28;20016;-85
2024/02/16 01:51:57;;;;;;;1999.90;999.90;;;16.20;99.90;;;;;;5091344;28;20059;-84
2024/02/16 01:54:23;;;;;;;1999.90;999.90;;;16.30;99.90;;;;;;5092737;28;20012;-84
2024/02/16 01:56:50;;;;;;;1999.90;999.90;;;16.40;99.90;;;;;;5091539;28;20028;-84
2024/02/16 01:59:17;;;;;;;1999.90;999.90;;;16.50;99.90;;;;;;5091762;28;20367;-85
2024/02/16 02:01:42;;;;;;;1999.90;999.90;;;16.50;99.90;;;;;;5092956;28;20051;-84
2024/02/16 02:04:08;;;;;;;1999.90;999.90;;;16.60;99.90;;;;;;5091425;28;20496;-86
2024/02/16 02:06:34;;;;;;;1999.90;999.90;;;16.70;99.90;;;;;;5091181;28;20055;-85
2024/02/16 02:08:59;;;;;;;1999.90;999.90;;;16.80;99.90;;;;;;5090925;28;20032;-85
2024/02/16 02:11:25;;;;;;;1999.90;999.90;;;16.80;99.90;;;;;;5091319;28;20054;-84
2024/02/16 02:13:50;;;;;;;1999.90;999.90;;;16.90;99.90;;;;;;5091037;28;20032;-86
2024/02/16 02:16:18;;;;;;;1999.90;999.90;;;16.90;99.90;;;;;;5094888;28;20028;-84
2024/02/16 02:18:44;;;;;;;1999.90;999.90;;;17.00;99.90;;;;;;5111529;28;20076;-85
2024/02/16 02:21:10;;;;;;;1999.90;999.90;;;17.10;99.90;;;;;;5110762;28;20019;-84
2024/02/16 02:23:35;;;;;;;1999.90;999.90;;;17.10;99.90;;;;;;5102167;28;20096;-84
2024/02/16 02:26:01;;;;;;;1999.90;999.90;;;17.20;99.90;;;;;;5111059;28;20023;-84
2024/02/16 02:28:29;;;;;;;1999.90;999.90;;;17.20;99.90;;;;;;5112371;28;20023;-84
2024/02/16 02:30:55;;;;;;;1999.90;999.90;;;17.30;99.90;;;;;;5114888;28;20114;-84
2024/02/16 02:33:21;;;;;;;1999.90;999.90;;;17.40;99.90;;;;;;5106377;27;20034;-84
2024/02/16 02:35:47;;;;;;;1999.90;999.90;;;17.40;99.90;;;;;;5098319;28;20020;-84
2024/02/16 02:38:13;;;;;;;1999.90;999.90;;;17.40;99.90;;;;;;5094817;28;20383;-84
2024/02/16 02:40:38;;;;;;;1999.90;999.90;;;17.40;99.90;;;;;;5094610;28;20020;-86
2024/02/16 02:43:06;;;;;;;1999.90;999.90;;;17.40;99.90;;;;;;5094662;28;20036;-85
2024/02/16 02:45:31;;;;;;;1999.90;999.90;;;17.40;99.90;;;;;;5094466;28;20406;-85
2024/02/16 02:47:57;;;;;;;1999.90;999.90;;;17.40;99.90;;;;;;5095928;28;20028;-84
2024/02/16 02:50:24;;;;;;;1999.90;999.90;;;17.40;99.90;;;;;;5094841;28;20437;-85
2024/02/16 02:52:49;;;;;;;1999.90;999.90;;;17.40;99.90;;;;;;5094252;28;20074;-85
2024/02/16 02:55:15;;;;;;;1999.90;999.90;;;17.40;99.90;;;;;;5095725;28;20020;-87
2024/02/16 02:57:41;;;;;;;1999.90;999.90;;;17.40;99.90;;;;;;5095536;28;20028;-84
2024/02/16 03:00:10;;;;;;;1999.90;999.90;;;17.40;99.90;;;;;;5096335;28;20031;-84
2024/02/16 03:02:40;;;;;;;1999.90;999.90;;;17.50;99.90;;;;;;5095516;28;20032;-86
2024/02/16 03:05:09;;;;;;;1999.90;999.90;;;17.50;99.90;;;;;;5095298;28;20059;-86
2024/02/16 03:07:35;;;;;;;1999.90;999.90;;;17.50;99.90;;;;;;5094587;28;20052;-86
2024/02/16 03:10:02;;;;;;;1999.90;999.90;;;17.50;99.90;;;;;;5093852;28;20043;-85
2024/02/16 03:12:28;;;;;;;1999.90;999.90;;;17.50;99.90;;;;;;5095236;28;20028;-84
2024/02/16 03:14:54;;;;;;;1999.90;999.90;;;17.40;99.90;;;;;;5093893;28;20016;-84
2024/02/16 03:17:19;;;;;;;1999.90;999.90;;;17.40;99.90;;;;;;5094224;28;20035;-86
2024/02/16 03:19:45;;;;;;;1999.90;999.90;;;17.30;99.90;;;;;;5093916;28;20013;-84
2024/02/16 03:22:11;;;;;;;1999.90;999.90;;;17.20;99.90;;;;;;5102830;28;20024;-84
2024/02/16 03:24:36;;;;;;;1999.90;999.90;;;17.20;99.90;;;;;;5113724;28;20096;-84
2024/02/16 03:27:02;;;;;;;1999.90;999.90;;;17.10;99.90;;;;;;5112420;28;20028;-86
2024/02/16 03:29:28;;;;;;;1999.90;999.90;;;17.00;99.90;;;;;;5093702;28;20027;-87
2024/02/16 03:31:53;;;;;;;1999.90;999.90;;;17.00;99.90;;;;;;5093960;28;20435;-85
2024/02/16 03:34:19;;;;;;;1999.90;999.90;;;16.90;99.90;;;;;;5112384;28;20398;-85
2024/02/16 03:36:44;;;;;;;1999.90;999.90;;;16.80;99.90;;;;;;5115406;28;20023;-84
2024/02/16 03:39:10;;;;;;;1999.90;999.90;;;16.80;99.90;;;;;;5113899;28;20081;-85
2024/02/16 03:41:36;;;;;;;1999.90;999.90;;;16.70;99.90;;;;;;5113207;28;20027;-86
2024/02/16 03:44:02;;;;;;;1999.90;999.90;;;16.70;99.90;;;;;;5113639;28;20027;-85
2024/02/16 03:46:27;;;;;;;1999.90;999.90;;;16.60;99.90;;;;;;5113746;28;20031;-86
2024/02/16 03:48:53;;;;;;;1999.90;999.90;;;16.60;99.90;;;;;;5113681;28;20028;-86
2024/02/16 03:51:18;;;;;;;1999.90;999.90;;;16.60;99.90;;;;;;5115178;28;20035;-84
2024/02/16 03:53:46;;;;;;;1999.90;999.90;;;16.50;99.90;;;;;;5113793;28;20118;-84
2024/02/16 03:56:12;;;;;;;1999.90;999.90;;;16.50;99.90;;;;;;5114064;28;20032;-86
2024/02/16 03:58:38;;;;;;;1999.90;999.90;;;16.50;99.90;;;;;;5113565;28;20032;-87
2024/02/16 04:01:06;;;;;;;1999.90;999.90;;;16.50;99.90;;;;;;5113404;28;20031;-86
2024/02/16 04:03:32;;;;;;;1999.90;999.90;;;16.50;99.90;;;;;;5114577;27;20019;-85
2024/02/16 04:05:59;;;;;;;1999.90;999.90;;;16.40;99.90;;;;;;5113545;28;20078;-86
2024/02/16 04:08:25;;;;;;;1999.90;999.90;;;16.40;99.90;;;;;;5113184;28;20020;-86
2024/02/16 04:10:51;;;;;;;1999.90;999.90;;;16.40;99.90;;;;;;5113037;28;20042;-88
2024/02/16 04:13:16;;;;;;;1999.90;999.90;;;16.40;99.90;;;;;;5113070;28;20023;-86
2024/02/16 04:15:42;;;;;;;1999.90;999.90;;;16.40;99.90;;;;;;5112985;28;20406;-85
2024/02/16 04:18:07;;;;;;;1999.90;999.90;;;16.30;99.90;;;;;;5113334;28;20027;-85
2024/02/16 04:20:33;;;;;;;1999.90;999.90;;;16.30;99.90;;;;;;5114422;28;20487;-85
2024/02/16 04:23:00;;;;;;;1999.90;999.90;;;16.30;99.90;;;;;;5126778;28;20016;-85
2024/02/16 04:25:25;;;;;;;1999.90;999.90;;;16.30;99.90;;;;;;5136590;28;20020;-87
2024/02/16 04:27:51;;;;;;;1999.90;999.90;;;16.30;99.90;;;;;;5119651;28;20027;-84
2024/02/16 04:30:17;;;;;;;1999.90;999.90;;;16.30;99.90;;;;;;5114515;28;20024;-85
2024/02/16 04:32:42;;;;;;;1999.90;999.90;;;16.30;99.90;;;;;;5097951;28;20019;-84
2024/02/16 04:35:11;;;;;;;1999.90;999.90;;;16.20;99.90;;;;;;5113959;28;20363;-88
2024/02/16 04:37:39;;;;;;;1999.90;999.90;;;16.10;99.90;;;;;;5112770;28;20023;-84
2024/02/16 04:40:05;;;;;;;1999.90;999.90;;;16.10;99.90;;;;;;5114236;28;20078;-84
2024/02/16 04:42:31;;;;;;;1999.90;999.90;;;16.10;99.90;;;;;;5113016;28;20547;-85
2024/02/16 04:44:57;;;;;;;1999.90;999.90;;;16.00;99.90;;;;;;5112586;28;20024;-85
2024/02/16 04:47:24;;;;;;;1999.90;999.90;;;16.00;99.90;;;;;;5114009;28;20080;-88
2024/02/16 04:49:50;;;;;;;1999.90;999.90;;;15.90;99.90;;;;;;5112322;28;20030;-87
2024/02/16 04:52:15;;;;;;;1999.90;999.90;;;15.90;99.90;;;;;;5112424;28;20028;-87
2024/02/16 04:54:41;;;;;;;1999.90;999.90;;;15.80;99.90;;;;;;5113924;28;20457;-85
2024/02/16 04:57:07;;;;;;;1999.90;999.90;;;15.80;99.90;;;;;;5114110;28;20099;-85
2024/02/16 04:59:33;;;;;;;1999.90;999.90;;;15.70;99.90;;;;;;5112337;28;20119;-88
2024/02/16 05:01:58;;;;;;;1999.90;999.90;;;15.60;99.90;;;;;;5113970;28;20102;-85
2024/02/16 05:04:24;;;;;;;1999.90;999.90;;;15.60;99.90;;;;;;5113781;28;20042;-85
2024/02/16 05:06:52;;;;;;;1999.90;999.90;;;15.50;99.90;;;;;;5113268;28;20107;-85
2024/02/16 05:09:18;;;;;;;1999.90;999.90;;;15.50;99.90;;;;;;5112136;28;20027;-85
2024/02/16 05:11:44;;;;;;;1999.90;999.90;;;15.40;99.90;;;;;;5112147;28;20024;-86
2024/02/16 05:14:13;;;;;;;1999.90;999.90;;;15.30;99.90;;;;;;5113526;28;20501;-85
2024/02/16 05:16:43;;;;;;;1999.90;999.90;;;15.30;99.90;;;;;;5112099;28;20402;-85
2024/02/16 05:19:09;;;;;;;1999.90;999.90;;;15.20;99.90;;;;;;5112104;28;20398;-85
2024/02/16 05:21:35;;;;;;;1999.90;999.90;;;15.10;99.90;;;;;;5107861;28;20023;-84
2024/02/16 05:24:01;;;;;;;1999.90;999.90;;;15.10;99.90;;;;;;5106064;28;20031;-87
2024/02/16 05:26:26;;;;;;;1999.90;999.90;;;15.00;99.90;;;;;;5113154;28;20035;-84
2024/02/16 05:28:52;;;;;;;1999.90;999.90;;;14.90;99.90;;;;;;5111569;28;20077;-87
2024/02/16 05:31:18;;;;;;;1999.90;999.90;;;14.80;99.90;;;;;;5111131;28;20031;-87
2024/02/16 05:33:47;;;;;;;1999.90;999.90;;;14.80;99.90;;;;;;5097685;28;20028;-85
2024/02/16 05:36:16;;;;;;;1999.90;999.90;;;14.70;99.90;;;;;;5091626;28;20031;-84
2024/02/16 05:38:43;;;;;;;1999.90;999.90;;;14.70;99.90;;;;;;5091308;28;20035;-84
2024/02/16 05:41:12;;;;;;;1999.90;999.90;;;14.60;99.90;;;;;;5092933;28;20023;-86
2024/02/16 05:43:38;;;;;;;1999.90;999.90;;;14.60;99.90;;;;;;5091407;28;20032;-85
2024/02/16 05:46:07;;;;;;;1999.90;999.90;;;14.50;99.90;;;;;;5093473;28;20043;-84
2024/02/16 05:48:39;;;;;;;1999.90;999.90;;;14.50;99.90;;;;;;5091495;28;20032;-85
2024/02/16 05:51:05;;;;;;;1999.90;999.90;;;14.50;99.90;;;;;;5091316;28;20452;-86
2024/02/16 05:53:35;;;;;;;1999.90;999.90;;;14.50;99.90;;;;;;5102855;28;20047;-84
2024/02/16 05:56:01;;;;;;;1999.90;999.90;;;14.50;99.90;;;;;;5093848;28;20558;-85
2024/02/16 05:58:29;;;;;;;1999.90;999.90;;;14.50;99.90;;;;;;5091295;28;20024;-85
2024/02/16 06:00:54;;;;;;;1999.90;999.90;;;14.50;99.90;;;;;;5107452;28;20608;-85
2024/02/16 06:03:21;;;;;;;1999.90;999.90;;;14.50;99.90;;;;;;5112373;28;20065;-85
2024/02/16 06:05:47;;;;;;;1999.90;999.90;;;14.50;99.90;;;;;;5121920;28;20059;-85
2024/02/16 06:08:13;;;;;;;1999.90;999.90;;;14.40;99.90;;;;;;5133454;28;20012;-85
2024/02/16 06:10:39;;;;;;;1999.90;999.90;;;14.40;99.90;;;;;;5129655;28;20004;-85
2024/02/16 06:13:06;;;;;;;1999.90;999.90;;;14.40;99.90;;;;;;5139455;28;20057;-85
2024/02/16 06:15:33;;;;;;;1999.90;999.90;;;14.40;99.90;;;;;;5134527;28;20045;-84
2024/02/16 06:18:00;;;;;;;1999.90;999.90;;;14.30;99.90;;;;;;5136729;28;20125;-87
2024/02/16 06:20:26;;;;;;;1999.90;999.90;;;14.30;99.90;;;;;;5105808;28;20016;-84
2024/02/16 06:22:52;;;;;;;1999.90;999.90;;;14.30;99.90;;;;;;5108791;28;20484;-85
2024/02/16 06:25:18;;;;;;;1999.90;999.90;;;14.30;99.90;;;;;;5114129;28;20474;-84
2024/02/16 06:27:44;;;;;;;1999.90;999.90;;;14.20;99.90;;;;;;5116123;28;20020;-85
2024/02/16 06:30:12;;;;;;;1999.90;999.90;;;14.20;99.90;;;;;;5105616;28;20423;-85
2024/02/16 06:32:40;;;;;;;1999.90;999.90;;;14.20;99.90;;;;;;5104347;28;20028;-85
2024/02/16 06:35:07;;;;;;;1999.90;999.90;;;14.10;99.90;;;;;;5124509;27;20115;-84
2024/02/16 06:37:32;;;;;;;1999.90;999.90;;;14.10;99.90;;;;;;5107794;28;20019;-85
2024/02/16 06:39:58;;;;;;;1999.90;999.90;;;14.10;99.90;;;;;;5106369;28;20425;-85
2024/02/16 06:42:24;;;;;;;1999.90;999.90;;;14.10;99.90;;;;;;5106640;28;20039;-85
2024/02/16 06:44:50;;;;;;;1999.90;999.90;;;14.10;99.90;;;;;;5107698;28;20019;-86
2024/02/16 06:47:15;;;;;;;1999.90;999.90;;;14.10;99.90;;;;;;5114215;28;20041;-85
2024/02/16 06:49:41;;;;;;;1999.90;999.90;;;14.10;99.90;;;;;;5106366;28;20028;-85
2024/02/16 06:52:09;;;;;;;1999.90;999.90;;;14.10;99.90;;;;;;5100991;28;20035;-85
2024/02/16 06:54:34;;;;;;;1999.90;999.90;;;14.10;99.90;;;;;;5114041;28;20024;-87
2024/02/16 06:57:01;;;;;;;1999.90;999.90;;;14.10;99.90;;;;;;5100268;28;20031;-86
2024/02/16 06:59:27;;;;;;;1999.90;999.90;;;14.10;99.90;;;;;;5107976;28;20099;-86
2024/02/16 07:01:53;;;;;;;1999.90;999.90;;;14.10;99.90;;;;;;5097602;28;20508;-86
2024/02/16 07:04:18;;;;;;;1999.90;999.90;;;14.20;99.90;;;;;;5111831;28;20121;-85
2024/02/16 07:06:44;;;;;;;1999.90;999.90;;;14.20;99.90;;;;;;5101552;28;20418;-85
2024/02/16 07:09:10;;;;;;;1999.90;999.90;;;14.20;99.90;;;;;;5101195;28;20063;-86
2024/02/16 07:11:35;;;;;;;1999.90;999.90;;;14.10;99.90;;;;;;5093463;28;20036;-86
2024/02/16 07:14:02;;;;;;;1999.90;999.90;;;14.10;99.90;;;;;;5093349;28;20032;-86
2024/02/16 07:16:28;;;;;;;1999.90;999.90;;;14.10;99.90;;;;;;5092724;28;20514;-86
2024/02/16 07:18:54;;;;;;;1999.90;999.90;;;14.10;99.90;;;;;;5098661;28;20016;-85
2024/02/16 07:21:22;;;;;;;1999.90;999.90;;;14.00;99.90;;;;;;5113864;28;20073;-86
2024/02/16 07:23:48;;;;;;;1999.90;999.90;;;14.10;99.90;;;;;;5111706;28;20031;-78
2024/02/16 07:26:14;;;;;;;1999.90;999.90;;;14.10;99.90;;;;;;5110161;28;20468;-81
2024/02/16 07:28:39;;;;;;;1999.90;999.90;;;14.10;99.90;;;;;;5112619;28;20051;-80
2024/02/16 07:31:05;;;;;;;1999.90;999.90;;;14.10;99.90;;;;;;5111122;28;20036;-81
2024/02/16 07:33:31;;;;;;;1999.90;999.90;;;14.00;99.90;;;;;;5114407;28;20038;-80
2024/02/16 07:35:57;;;;;;;1999.90;999.90;;;14.00;99.90;;;;;;5094152;28;20123;-80
2024/02/16 07:38:23;;;;;;;1999.90;999.90;;;14.00;99.90;;;;;;5102933;28;20020;-80
2024/02/16 07:40:50;;;;;;;1999.90;999.90;;;13.90;99.90;;;;;;5110388;28;20028;-80
2024/02/16 07:43:16;;;;;;;1999.90;999.90;;;13.90;99.90;;;;;;5114000;28;20015;-80
2024/02/16 07:45:42;;;;;;;1999.90;999.90;;;13.80;99.90;;;;;;5106358;28;20028;-81
2024/02/16 07:48:07;;;;;;;1999.90;999.90;;;13.80;99.90;;;;;;5101972;28;20042;-79
2024/02/16 07:50:33;;;;;;;1999.90;999.90;;;13.70;99.90;;;;;;5110451;28;20813;-80
2024/02/16 07:52:59;;;;;;;1999.90;999.90;;;13.60;99.90;;;;;;5100459;28;20497;-78
2024/02/16 07:55:24;;;;;;;1999.90;999.90;;;13.60;99.90;;;;;;5101768;28;20058;-77
2024/02/16 07:57:53;;;;;;;1999.90;999.90;;;13.50;99.90;;;;;;5107388;28;20035;-78
2024/02/16 08:00:19;;;;;;;1999.90;999.90;;;13.40;99.90;;;;;;5107975;28;20038;-77
2024/02/16 08:02:45;;;;;;;1999.90;999.90;;;13.40;99.90;;;;;;5109500;28;20506;-78
2024/02/16 08:05:12;;;;;;;1999.90;999.90;;;13.30;99.90;;;;;;5111936;28;20043;-78
2024/02/16 08:07:38;;;;;;;1999.90;999.90;;;13.30;99.90;;;;;;5111815;28;20517;-78
2024/02/16 08:10:04;;;;;;;1999.90;999.90;;;13.20;99.90;;;;;;5112709;28;20028;-78
2024/02/16 08:12:31;;;;;;;1999.90;999.90;;;13.20;99.90;;;;;;5107045;28;20036;-78
2024/02/16 08:14:58;;;;;;;1999.90;999.90;;;13.10;99.90;;;;;;5112085;28;20023;-76
2024/02/16 08:17:23;;;;;;;1999.90;999.90;;;13.10;99.90;;;;;;5109292;28;20031;-76
2024/02/16 08:19:54;;;;;;;1999.90;999.90;;;13.00;99.90;;;;;;5100752;28;20599;-76
2024/02/16 08:22:20;;;;;;;1999.90;999.90;;;13.10;99.90;;;;;;5106483;28;20087;-77
2024/02/16 08:24:49;;;;;;;1999.90;999.90;;;13.00;99.90;;;;;;5107850;28;20027;-79
2024/02/16 08:27:16;;;;;;;1999.90;999.90;;;13.00;99.90;;;;;;5106529;28;20019;-76
2024/02/16 08:29:45;;;;;;;1999.90;999.90;;;13.00;99.90;;;;;;5126520;28;20050;-76
2024/02/16 08:32:10;;;;;;;1999.90;999.90;;;12.90;99.90;;;;;;5103383;28;20111;-76
2024/02/16 08:34:37;;;;;;;1999.90;999.90;;;12.90;99.90;;;;;;5109599;28;20170;-77
2024/02/16 08:37:07;;;;;;;1999.90;999.90;;;12.80;99.90;;;;;;5107218;28;20028;-77
2024/02/16 08:39:34;;;;;;;1999.90;999.90;;;12.90;99.90;;;;;;5103375;28;20391;-76
2024/02/16 08:42:00;;;;;;;1999.90;999.90;;;12.80;99.90;;;;;;5100367;28;20475;-76
2024/02/16 08:44:26;;;;;;;1999.90;999.90;;;12.80;99.90;;;;;;5111289;28;20028;-77
2024/02/16 08:46:53;;;;;;;1999.90;999.90;;;12.80;99.90;;;;;;5110085;28;20044;-77
2024/02/16 08:49:19;;;;;;;1999.90;999.90;;;12.80;99.90;;;;;;5094339;28;20055;-77
2024/02/16 08:51:44;;;;;;;1999.90;999.90;;;12.80;99.90;;;;;;5095727;28;20075;-76
2024/02/16 08:54:10;;;;;;;1999.90;999.90;;;12.80;99.90;;;;;;5095653;28;20171;-76
2024/02/16 08:56:36;;;;;;;1999.90;999.90;;;12.80;99.90;;;;;;5110116;28;20485;-76
2024/02/16 08:59:07;;;;;;;1999.90;999.90;;;12.80;99.90;;;;;;5110605;28;20030;-77
2024/02/16 09:01:39;;;;;;;1999.90;999.90;;;12.80;99.90;;;;;;5098556;28;20142;-76
2024/02/16 09:04:05;;;;;;;1999.90;999.90;;;12.80;99.90;;;;;;5111913;28;20039;-77
2024/02/16 09:06:30;;;;;;;1999.90;999.90;;;12.90;99.90;;;;;;5097111;28;20506;-76
2024/02/16 09:08:56;;;;;;;1999.90;999.90;;;12.90;99.90;;;;;;5111277;28;20486;-77
2024/02/16 09:11:23;;;;;;;1999.90;999.90;;;12.90;99.90;;;;;;5108070;28;20406;-77
2024/02/16 09:13:49;;;;;;;1999.90;999.90;;;13.00;99.90;;;;;;5106032;28;20032;-77
2024/02/16 09:16:15;;;;;;;1999.90;999.90;;;13.10;99.90;;;;;;5096827;28;20039;-77
2024/02/16 09:18:41;;;;;;;1999.90;999.90;;;13.10;99.90;;;;;;5100932;28;20028;-76
2024/02/16 09:21:07;;;;;;;1999.90;999.90;;;13.20;99.90;;;;;;5097232;28;20055;-77
2024/02/16 09:23:34;;;;;;;1999.90;999.90;;;13.20;99.90;;;;;;5099295;28;20816;-76
2024/02/16 09:26:00;;;;;;;1999.90;999.90;;;13.10;99.90;;;;;;5101880;28;20074;-77
2024/02/16 09:28:26;;;;;;;1999.90;999.90;;;13.10;99.90;;;;;;5100609;28;20062;-77
2024/02/16 09:30:52;;;;;;;1999.90;999.90;;;13.10;99.90;;;;;;5106851;28;20044;-77
2024/02/16 09:33:17;;;;;;;1999.90;999.90;;;13.20;99.90;;;;;;5106775;28;20060;-76
2024/02/16 09:35:43;;;;;;;1999.90;999.90;;;13.30;99.90;;;;;;5105375;28;20081;-77
2024/02/16 09:38:11;;;;;;;1999.90;999.90;;;13.40;99.90;;;;;;5096757;28;20024;-77
2024/02/16 09:40:37;;;;;;;1999.90;999.90;;;13.60;99.90;;;;;;5103879;28;20024;-76
2024/02/16 09:43:03;;;;;;;1999.90;999.90;;;13.80;99.90;;;;;;5099773;28;20107;-76
2024/02/16 09:45:30;;;;;;;1999.90;999.90;;;14.10;99.90;;;;;;5099166;28;20077;-77
2024/02/16 09:47:57;;;;;;;1999.90;999.90;;;14.00;99.90;;;;;;5094223;28;20840;-74
2024/02/16 09:50:23;;;;;;;1999.90;999.90;;;13.80;99.90;;;;;;5104146;28;20024;-77
2024/02/16 09:52:50;;;;;;;1999.90;999.90;;;14.00;99.90;;;;;;5092115;28;20028;-76
2024/02/16 09:55:17;;;;;;;1999.90;999.90;;;13.80;99.90;;;;;;5104424;28;20030;-76
2024/02/16 09:57:43;;;;;;;1999.90;999.90;;;13.80;99.90;;;;;;5109406;28;20026;-75
2024/02/16 10:00:10;;;;;;;1999.90;999.90;;;14.00;99.90;;;;;;5101343;28;20077;-74
2024/02/16 10:02:41;;;;;;;1999.90;999.90;;;13.80;99.90;;;;;;5103166;28;20027;-74
2024/02/16 10:05:15;;;;;;;1999.90;999.90;;;13.60;99.90;;;;;;5098940;28;20044;-75
2024/02/16 10:07:41;;;;;;;1999.90;999.90;;;13.60;99.90;;;;;;5088716;28;20023;-74
2024/02/16 10:10:19;;;;;;;1999.90;999.90;;;13.40;99.90;;;;;;5108631;28;20028;-75
2024/02/16 10:12:45;;;;;;;1999.90;999.90;;;13.50;99.90;;;;;;5102944;28;20039;-75
2024/02/16 10:15:11;;;;;;;1999.90;999.90;;;13.60;99.90;;;;;;5088418;28;20421;-74
2024/02/16 10:17:37;;;;;;;1999.90;999.90;;;13.60;99.90;;;;;;5090870;28;20482;-74
2024/02/16 10:20:06;;;;;;;1999.90;999.90;;;13.80;99.90;;;;;;5109912;28;20051;-74
2024/02/16 10:22:32;;;;;;;1999.90;999.90;;;13.80;99.90;;;;;;5090708;28;20501;-75
2024/02/16 10:25:11;;;;;;;1999.90;999.90;;;13.80;99.90;;;;;;5093303;28;20084;-75
2024/02/16 10:27:37;;;;;;;1999.90;999.90;;;13.90;99.90;;;;;;5087565;28;20027;-74
2024/02/16 10:30:09;;;;;;;1999.90;999.90;;;14.10;99.90;;;;;;5103532;28;20398;-74
2024/02/16 10:32:39;;;;;;;1999.90;999.90;;;14.10;99.90;;;;;;5102214;28;20036;-76
2024/02/16 10:35:08;;;;;;;1999.90;999.90;;;14.00;99.90;;;;;;5108997;28;20035;-77
2024/02/16 10:37:34;;;;;;;1999.90;999.90;;;13.80;99.90;;;;;;5105921;28;20095;-76
2024/02/16 10:40:01;;;;;;;1999.90;999.90;;;13.70;99.90;;;;;;5103763;28;20095;-75
2024/02/16 10:42:29;;;;;;;1999.90;999.90;;;13.80;99.90;;;;;;5117979;28;20023;-76
2024/02/16 10:44:55;;;;;;;1999.90;999.90;;;13.70;99.90;;;;;;5085591;28;20157;-76
2024/02/16 10:47:21;;;;;;;1999.90;999.90;;;13.70;99.90;;;;;;5111206;28;20023;-75
2024/02/16 10:49:46;;;;;;;1999.90;999.90;;;13.80;99.90;;;;;;5110675;28;20032;-75
2024/02/16 10:52:14;;;;;;;1999.90;999.90;;;13.90;99.90;;;;;;5081290;28;20105;-75
2024/02/16 10:54:42;;;;;;;1999.90;999.90;;;13.90;99.90;;;;;;5108315;28;20039;-74
2024/02/16 10:57:12;;;;;;;1999.90;999.90;;;14.00;99.90;;;;;;5106048;27;20037;-76
2024/02/16 10:59:46;;;;;;;1999.90;999.90;;;14.00;99.90;;;;;;5096027;28;20078;-75
2024/02/16 11:02:12;;;;;;;1999.90;999.90;;;14.10;99.90;;;;;;5076057;28;20500;-75
2024/02/16 11:04:39;;;;;;;1999.90;999.90;;;14.20;99.90;;;;;;5100490;28;20405;-75
2024/02/16 11:07:14;;;;;;;1999.90;999.90;;;14.10;99.90;;;;;;5083767;28;20118;-75
2024/02/16 11:09:40;;;;;;;1999.90;999.90;;;14.10;99.90;;;;;;5103972;28;20055;-75
2024/02/16 11:12:12;;;;;;;1999.90;999.90;;;14.00;99.90;;;;;;5080523;28;20051;-76
2024/02/16 11:14:54;;;;;;;1999.90;999.90;;;13.90;99.90;;;;;;5106670;28;20023;-76
2024/02/16 11:17:22;;;;;;;1999.90;999.90;;;13.90;99.90;;;;;;5112335;28;20022;-75
2024/02/16 11:19:48;;;;;;;1999.90;999.90;;;13.90;99.90;;;;;;5090691;28;20077;-76
2024/02/16 11:22:18;;;;;;;1999.90;999.90;;;14.00;99.90;;;;;;5087108;28;20034;-75
2024/02/16 11:24:49;;;;;;;1999.90;999.90;;;14.00;99.90;;;;;;5075234;28;20165;-74
2024/02/16 11:27:18;;;;;;;1999.90;999.90;;;14.10;99.90;;;;;;5079854;28;20110;-75
2024/02/16 11:29:45;;;;;;;1999.90;999.90;;;14.10;99.90;;;;;;5114553;28;20645;-75
2024/02/16 11:32:11;;;;;;;1999.90;999.90;;;14.30;99.90;;;;;;5099344;28;20036;-75
2024/02/16 11:34:40;;;;;;;1999.90;999.90;;;14.60;99.90;;;;;;5098131;28;20039;-74
2024/02/16 11:37:06;;;;;;;1999.90;999.90;;;14.80;99.90;;;;;;5074803;28;20028;-75
2024/02/16 11:39:35;;;;;;;1999.90;999.90;;;14.80;99.90;;;;;;5097324;28;20051;-75
2024/02/16 11:42:05;;;;;;;1999.90;999.90;;;14.70;99.90;;;;;;5110453;28;20114;-76
2024/02/16 11:44:35;;;;;;;1999.90;999.90;;;14.70;99.90;;;;;;5095189;28;20024;-75
2024/02/16 11:47:06;;;;;;;1999.90;999.90;;;14.50;99.90;;;;;;5097066;28;20063;-76
2024/02/16 11:49:32;;;;;;;1999.90;999.90;;;14.40;99.90;;;;;;5096335;28;20023;-78
2024/02/16 11:52:04;;;;;;;1999.90;999.90;;;14.40;99.90;;;;;;5095196;28;20387;-79
2024/02/16 11:54:31;;;;;;;1999.90;999.90;;;14.40;99.90;;;;;;5093448;28;20028;-79